createdAt,value
2022-10-01T00:02:08.296Z,13.68
2022-10-01T00:04:37.923Z,15.77
2022-10-01T00:07:09.299Z,12.98
2022-10-01T00:09:35.686Z,14.23
2022-10-01T00:12:02.962Z,11.07
2022-10-01T00:14:29.498Z,19.52
2022-10-01T00:16:55.953Z,15.63
2022-10-01T00:19:22.866Z,13.65
2022-10-01T00:21:49.539Z,17.25
2022-10-01T00:24:15.985Z,16.45
2022-10-01T00:26:42.930Z,13.23
2022-10-01T00:29:14.425Z,17.10
2022-10-01T00:31:41.144Z,16.40
2022-10-01T00:34:07.612Z,16.05
2022-10-01T00:36:34.715Z,16.45
2022-10-01T00:39:02.057Z,18.50
2022-10-01T00:41:31.941Z,16.63
2022-10-01T00:44:01.975Z,15.10
2022-10-01T00:46:40.603Z,20.52
2022-10-01T00:49:20.450Z,16.55
2022-10-01T00:51:52.412Z,16.10
2022-10-01T00:54:31.158Z,18.15
2022-10-01T00:56:59.459Z,17.60
2022-10-01T00:59:26.789Z,16.50
2022-10-01T01:01:54.049Z,18.40
2022-10-01T01:04:20.526Z,20.00
2022-10-01T01:06:55.812Z,19.60
2022-10-01T01:09:26.222Z,18.88
2022-10-01T01:11:58.402Z,16.83
2022-10-01T01:14:35.978Z,18.67
2022-10-01T01:17:10.802Z,23.73
2022-10-01T01:20:02.070Z,17.88
2022-10-01T01:22:34.637Z,18.63
2022-10-01T01:25:16.449Z,16.60
2022-10-01T01:27:50.122Z,21.23
2022-10-01T01:30:20.555Z,17.88
2022-10-01T01:32:54.053Z,17.17
2022-10-01T01:35:27.147Z,23.23
2022-10-01T01:37:58.720Z,19.70
2022-10-01T01:40:26.911Z,17.23
2022-10-01T01:42:55.587Z,18.05
2022-10-01T01:47:56.004Z,22.50
2022-10-01T01:50:25.514Z,18.95
2022-10-01T01:52:53.934Z,18.92
2022-10-01T01:55:25.719Z,19.73
2022-10-01T01:57:53.135Z,19.40
2022-10-01T02:00:19.634Z,21.40
2022-10-01T02:02:52.799Z,16.90
2022-10-01T02:05:32.935Z,21.45
2022-10-01T02:08:12.761Z,21.42
2022-10-01T02:10:44.903Z,17.55
2022-10-01T02:13:33.551Z,19.02
2022-10-01T02:16:18.993Z,17.77
2022-10-01T02:19:04.283Z,18.23
2022-10-01T02:21:52.562Z,18.98
2022-10-01T02:24:39.294Z,18.02
2022-10-01T02:27:15.680Z,17.60
2022-10-01T02:29:45.164Z,20.85
2022-10-01T02:32:13.822Z,17.85
2022-10-01T02:37:10.836Z,20.50
2022-10-01T02:39:41.385Z,17.52
2022-10-01T02:42:12.974Z,17.95
2022-10-01T02:44:42.578Z,17.70
2022-10-01T02:47:21.250Z,17.67
2022-10-01T02:49:48.990Z,21.20
2022-10-01T02:52:37.483Z,20.08
2022-10-01T02:55:05.520Z,21.50
2022-10-01T02:57:32.886Z,21.45
2022-10-01T03:00:03.095Z,19.50
2022-10-01T03:02:31.681Z,20.38
2022-10-01T03:07:26.774Z,19.42
2022-10-01T03:09:53.536Z,19.33
2022-10-01T03:12:20.308Z,20.08
2022-10-01T03:14:46.816Z,20.73
2022-10-01T03:17:15.472Z,18.50
2022-10-01T03:19:42.698Z,19.05
2022-10-01T03:22:12.965Z,25.17
2022-10-01T03:24:39.376Z,19.38
2022-10-01T03:27:05.755Z,21.30
2022-10-01T03:29:32.146Z,30.60
2022-10-01T03:31:58.525Z,23.60
2022-10-01T03:34:25.060Z,22.70
2022-10-01T03:36:52.712Z,18.85
2022-10-01T03:39:19.764Z,22.05
2022-10-01T03:41:46.422Z,21.67
2022-10-01T03:44:13.043Z,20.98
2022-10-01T03:46:39.506Z,21.88
2022-10-01T03:49:05.914Z,20.33
2022-10-01T03:51:32.746Z,23.92
2022-10-01T03:53:59.440Z,23.30
2022-10-01T03:56:26.297Z,21.40
2022-10-01T03:58:52.721Z,22.50
2022-10-01T04:01:19.302Z,21.02
2022-10-01T04:03:46.311Z,21.80
2022-10-01T04:06:12.997Z,20.80
2022-10-01T04:08:39.474Z,19.05
2022-10-01T04:11:06.925Z,20.77
2022-10-01T04:13:34.606Z,20.50
2022-10-01T04:16:02.818Z,19.52
2022-10-01T04:18:29.478Z,23.58
2022-10-01T04:20:55.897Z,21.08
2022-10-01T04:23:22.625Z,20.77
2022-10-01T04:25:49.419Z,22.63
2022-10-01T04:28:16.114Z,22.40
2022-10-01T04:30:45.860Z,20.95
2022-10-01T04:33:14.777Z,19.67
2022-10-01T04:35:41.712Z,23.88
2022-10-01T04:38:16.934Z,21.45
2022-10-01T04:43:12.465Z,19.00
2022-10-01T04:45:39.000Z,20.30
2022-10-01T04:48:05.893Z,19.77
2022-10-01T04:50:33.074Z,24.08
2022-10-01T04:52:59.486Z,21.05
2022-10-01T04:55:26.171Z,21.10
2022-10-01T04:57:52.574Z,23.50
2022-10-01T05:00:21.928Z,19.23
2022-10-01T05:02:49.542Z,20.38
2022-10-01T05:05:17.403Z,20.73
2022-10-01T05:07:43.918Z,19.45
2022-10-01T05:10:12.644Z,20.08
2022-10-01T05:15:05.950Z,21.13
2022-10-01T05:17:34.471Z,22.27
2022-10-01T05:20:02.062Z,21.67
2022-10-01T05:22:28.703Z,22.13
2022-10-01T05:24:55.197Z,22.88
2022-10-01T05:27:21.596Z,22.65
2022-10-01T05:29:48.327Z,21.95
2022-10-01T05:32:15.907Z,23.85
2022-10-01T05:34:43.159Z,19.73
2022-10-01T05:37:10.905Z,24.98
2022-10-01T05:39:37.775Z,23.90
2022-10-01T05:42:06.530Z,19.27
2022-10-01T05:44:37.942Z,19.60
2022-10-01T05:47:07.700Z,23.55
2022-10-01T05:49:34.339Z,18.23
2022-10-01T05:52:01.141Z,21.88
2022-10-01T05:54:29.549Z,19.35
2022-10-01T05:56:58.991Z,19.80
2022-10-01T05:59:28.432Z,22.00
2022-10-01T06:01:57.992Z,20.08
2022-10-01T06:04:24.538Z,21.40
2022-10-01T06:06:51.077Z,18.33
2022-10-01T06:09:17.640Z,21.73
2022-10-01T06:11:44.151Z,19.85
2022-10-01T06:14:10.645Z,22.55
2022-10-01T06:16:37.131Z,23.35
2022-10-01T06:19:03.782Z,21.92
2022-10-01T06:21:31.837Z,18.00
2022-10-01T06:23:58.488Z,20.83
2022-10-01T06:26:25.048Z,19.67
2022-10-01T06:28:52.599Z,18.55
2022-10-01T06:31:19.676Z,20.80
2022-10-01T06:33:46.139Z,21.95
2022-10-01T06:36:12.562Z,18.70
2022-10-01T06:38:39.023Z,18.02
2022-10-01T06:41:05.696Z,19.65
2022-10-01T06:43:33.273Z,16.35
2022-10-01T06:46:04.802Z,17.08
2022-10-01T06:48:32.350Z,19.23
2022-10-01T06:50:59.390Z,17.80
2022-10-01T06:53:27.909Z,26.48
2022-10-01T06:55:55.290Z,17.75
2022-10-01T06:58:26.186Z,17.83
2022-10-01T07:00:58.482Z,17.58
2022-10-01T07:03:25.049Z,16.73
2022-10-01T07:05:51.550Z,18.95
2022-10-01T07:08:25.018Z,15.85
2022-10-01T07:10:51.408Z,27.33
2022-10-01T07:13:20.187Z,18.58
2022-10-01T07:15:46.853Z,15.90
2022-10-01T07:18:13.802Z,18.23
2022-10-01T07:20:40.996Z,15.90
2022-10-01T07:23:10.714Z,15.63
2022-10-01T07:25:38.882Z,16.58
2022-10-01T07:28:07.197Z,15.25
2022-10-01T07:30:41.171Z,13.90
2022-10-01T07:33:07.546Z,18.70
2022-10-01T07:35:37.674Z,17.15
2022-10-01T07:38:08.060Z,18.80
2022-10-01T07:40:35.000Z,14.65
2022-10-01T07:43:01.440Z,15.50
2022-10-01T07:45:28.910Z,17.75
2022-10-01T07:48:00.286Z,16.98
2022-10-01T07:50:30.491Z,19.92
2022-10-01T07:52:58.311Z,17.13
2022-10-01T07:55:27.045Z,17.23
2022-10-01T07:57:55.387Z,18.90
2022-10-01T08:00:23.781Z,19.83
2022-10-01T08:02:53.475Z,16.35
2022-10-01T08:05:21.959Z,17.90
2022-10-01T08:07:49.616Z,20.08
2022-10-01T08:10:17.961Z,19.75
2022-10-01T08:12:44.950Z,17.80
2022-10-01T08:15:13.870Z,26.63
2022-10-01T08:17:40.519Z,16.65
2022-10-01T08:20:09.117Z,17.73
2022-10-01T08:25:08.357Z,19.83
2022-10-01T08:27:34.819Z,18.52
2022-10-01T08:30:01.452Z,19.30
2022-10-01T08:32:28.207Z,19.50
2022-10-01T08:34:59.892Z,18.52
2022-10-01T08:37:27.755Z,18.75
2022-10-01T08:39:55.209Z,17.13
2022-10-01T08:42:27.519Z,18.58
2022-10-01T08:44:54.059Z,18.08
2022-10-01T08:47:33.905Z,15.85
2022-10-01T08:50:24.980Z,15.57
2022-10-01T08:52:57.772Z,17.00
2022-10-01T08:55:31.879Z,15.77
2022-10-01T08:58:02.389Z,19.73
2022-10-01T09:00:32.519Z,13.88
2022-10-01T09:03:04.803Z,13.98
2022-10-01T09:05:46.110Z,14.05
2022-10-01T09:08:49.285Z,14.30
2022-10-01T09:11:42.091Z,17.08
2022-10-01T09:14:24.983Z,13.68
2022-10-01T09:17:10.795Z,14.93
2022-10-01T09:19:51.769Z,13.55
2022-10-01T09:22:40.116Z,14.40
2022-10-01T09:25:09.755Z,14.80
2022-10-01T09:27:38.226Z,14.35
2022-10-01T09:30:11.517Z,19.27
2022-10-01T09:32:45.295Z,14.02
2022-10-01T09:35:23.305Z,14.48
2022-10-01T09:38:17.901Z,13.68
2022-10-01T09:40:57.611Z,11.95
2022-10-01T09:43:29.936Z,14.13
2022-10-01T09:45:56.761Z,12.70
2022-10-01T09:48:34.152Z,13.02
2022-10-01T09:51:13.008Z,11.80
2022-10-01T09:53:45.898Z,12.07
2022-10-01T09:56:19.378Z,10.90
2022-10-01T09:58:50.126Z,13.35
2022-10-01T10:01:24.147Z,11.15
2022-10-01T10:03:55.646Z,12.48
2022-10-01T10:06:27.414Z,13.90
2022-10-01T10:08:56.923Z,12.02
2022-10-01T10:11:27.003Z,13.90
2022-10-01T10:13:58.332Z,14.85
2022-10-01T10:16:28.682Z,13.02
2022-10-01T10:18:58.803Z,11.65
2022-10-01T10:21:29.527Z,12.85
2022-10-01T10:24:00.831Z,9.43
2022-10-01T10:26:39.028Z,12.65
2022-10-01T10:29:08.588Z,12.77
2022-10-01T10:31:42.934Z,11.43
2022-10-01T10:34:18.588Z,19.17
2022-10-01T10:36:46.926Z,14.13
2022-10-01T10:39:23.840Z,12.57
2022-10-01T10:41:53.436Z,25.70
2022-10-01T10:44:24.269Z,20.98
2022-10-01T10:46:53.603Z,11.90
2022-10-01T10:49:47.947Z,10.48
2022-10-01T10:52:21.048Z,8.88
2022-10-01T10:54:49.620Z,11.52
2022-10-01T11:00:12.635Z,9.02
2022-10-01T11:02:42.328Z,8.90
2022-10-01T11:05:24.491Z,12.85
2022-10-01T11:07:55.982Z,7.53
2022-10-01T11:10:33.423Z,7.65
2022-10-01T11:13:49.571Z,6.88
2022-10-01T11:16:34.518Z,7.55
2022-10-01T11:19:03.860Z,6.40
2022-10-01T11:21:48.395Z,8.80
2022-10-01T11:24:35.145Z,6.68
2022-10-01T11:27:01.467Z,9.10
2022-10-01T11:30:01.433Z,7.90
2022-10-01T11:32:38.991Z,5.78
2022-10-01T11:35:18.632Z,7.43
2022-10-01T11:37:51.118Z,6.90
2022-10-01T11:40:33.907Z,5.97
2022-10-01T11:43:05.556Z,5.68
2022-10-01T11:45:41.405Z,7.40
2022-10-01T11:48:18.022Z,16.17
2022-10-01T11:50:48.194Z,6.63
2022-10-01T11:53:33.677Z,6.25
2022-10-01T11:56:23.942Z,15.57
2022-10-01T11:59:06.122Z,23.63
2022-10-01T12:01:45.108Z,15.10
2022-10-01T12:04:52.443Z,7.45
2022-10-01T12:07:24.216Z,5.80
2022-10-01T12:09:55.352Z,8.27
2022-10-01T12:12:34.346Z,13.02
2022-10-01T12:15:39.297Z,8.40
2022-10-01T12:18:52.217Z,4.97
2022-10-01T12:21:31.275Z,3.70
2022-10-01T12:24:03.536Z,5.43
2022-10-01T12:27:04.959Z,6.38
2022-10-01T12:29:54.082Z,5.18
2022-10-01T12:32:39.074Z,3.60
2022-10-01T12:35:35.700Z,4.25
2022-10-01T12:38:25.204Z,4.00
2022-10-01T12:41:00.643Z,4.93
2022-10-01T12:43:36.020Z,4.88
2022-10-01T12:46:05.530Z,6.22
2022-10-01T12:48:38.031Z,4.70
2022-10-01T12:51:07.466Z,5.78
2022-10-01T12:53:40.263Z,6.30
2022-10-01T12:56:12.951Z,4.38
2022-10-01T12:59:21.425Z,5.90
2022-10-01T13:02:10.641Z,3.03
2022-10-01T13:04:56.663Z,3.70
2022-10-01T13:07:26.221Z,4.40
2022-10-01T13:10:05.667Z,4.90
2022-10-01T13:12:44.127Z,9.20
2022-10-01T13:15:16.795Z,5.35
2022-10-01T13:17:54.839Z,10.38
2022-10-01T13:20:38.064Z,5.57
2022-10-01T13:23:34.185Z,2.80
2022-10-01T13:26:20.079Z,2.85
2022-10-01T13:29:25.764Z,5.78
2022-10-01T13:32:01.246Z,1.75
2022-10-01T13:34:36.554Z,2.97
2022-10-01T13:37:29.482Z,2.50
2022-10-01T13:39:57.329Z,2.42
2022-10-01T13:42:27.204Z,2.10
2022-10-01T13:44:57.959Z,1.88
2022-10-01T13:47:25.382Z,1.50
2022-10-01T13:50:03.919Z,1.27
2022-10-01T13:52:31.865Z,1.42
2022-10-01T13:55:01.123Z,3.67
2022-10-01T13:57:27.533Z,3.47
2022-10-01T14:00:03.133Z,1.40
2022-10-01T14:02:35.958Z,2.10
2022-10-01T14:05:19.030Z,1.30
2022-10-01T14:07:50.252Z,2.60
2022-10-01T14:10:16.856Z,1.23
2022-10-01T14:13:05.402Z,1.40
2022-10-01T14:16:02.747Z,2.40
2022-10-01T14:18:42.882Z,1.45
2022-10-01T14:21:37.589Z,4.85
2022-10-01T14:24:25.691Z,1.50
2022-10-01T14:26:52.038Z,5.50
2022-10-01T14:30:03.185Z,2.67
2022-10-01T14:32:44.143Z,2.47
2022-10-01T14:35:32.959Z,2.05
2022-10-01T14:38:01.790Z,1.48
2022-10-01T14:40:49.356Z,2.55
2022-10-01T14:43:20.615Z,2.78
2022-10-01T14:46:02.151Z,2.45
2022-10-01T14:48:34.159Z,4.95
2022-10-01T14:51:03.482Z,4.88
2022-10-01T14:53:33.493Z,2.00
2022-10-01T14:56:05.555Z,1.33
2022-10-01T14:58:37.083Z,3.83
2022-10-01T15:01:05.479Z,1.67
2022-10-01T15:06:13.128Z,3.50
2022-10-01T15:08:40.882Z,2.75
2022-10-01T15:11:22.095Z,1.98
2022-10-01T15:13:51.136Z,2.35
2022-10-01T15:16:20.485Z,5.68
2022-10-01T15:18:53.445Z,5.57
2022-10-01T15:21:24.580Z,11.63
2022-10-01T15:23:51.437Z,2.15
2022-10-01T15:26:27.469Z,2.83
2022-10-01T15:29:03.075Z,2.30
2022-10-01T15:31:30.194Z,3.10
2022-10-01T15:33:57.040Z,6.00
2022-10-01T15:36:23.558Z,3.58
2022-10-01T15:38:50.907Z,1.85
2022-10-01T15:41:33.408Z,3.67
2022-10-01T15:44:05.403Z,4.10
2022-10-01T15:46:34.785Z,8.80
2022-10-01T15:49:18.588Z,9.95
2022-10-01T15:52:19.308Z,4.40
2022-10-01T15:54:46.213Z,10.30
2022-10-01T15:57:21.893Z,8.63
2022-10-01T15:59:51.610Z,12.13
2022-10-01T16:02:25.723Z,10.90
2022-10-01T16:04:56.009Z,9.45
2022-10-01T16:07:29.618Z,5.15
2022-10-01T16:09:58.584Z,4.57
2022-10-01T16:12:27.994Z,7.53
2022-10-01T16:15:04.556Z,9.38
2022-10-01T16:17:36.922Z,4.25
2022-10-01T16:20:15.525Z,10.35
2022-10-01T16:22:43.419Z,9.98
2022-10-01T16:25:19.576Z,8.15
2022-10-01T16:27:48.724Z,6.10
2022-10-01T16:30:18.471Z,3.08
2022-10-01T16:32:45.668Z,5.72
2022-10-01T16:35:16.631Z,4.53
2022-10-01T16:37:45.404Z,5.43
2022-10-01T16:40:15.949Z,3.60
2022-10-01T16:42:44.007Z,5.35
2022-10-01T16:45:15.841Z,3.40
2022-10-01T16:47:42.868Z,6.50
2022-10-01T16:50:17.237Z,3.90
2022-10-01T16:52:43.904Z,4.18
2022-10-01T16:55:24.186Z,5.07
2022-10-01T16:57:53.544Z,5.63
2022-10-01T17:00:22.295Z,2.42
2022-10-01T17:02:48.785Z,5.30
2022-10-01T17:05:22.397Z,3.20
2022-10-01T17:07:49.487Z,4.32
2022-10-01T17:10:17.731Z,4.60
2022-10-01T17:12:47.749Z,10.27
2022-10-01T17:15:17.324Z,6.78
2022-10-01T17:17:45.262Z,2.22
2022-10-01T17:20:12.611Z,2.65
2022-10-01T17:22:39.448Z,5.47
2022-10-01T17:25:07.240Z,4.57
2022-10-01T17:27:33.831Z,5.43
2022-10-01T17:30:00.318Z,5.90
2022-10-01T17:32:27.116Z,4.60
2022-10-01T17:34:54.386Z,3.72
2022-10-01T17:37:23.871Z,2.60
2022-10-01T17:39:50.685Z,4.55
2022-10-01T17:42:18.055Z,2.10
2022-10-01T17:44:45.106Z,4.15
2022-10-01T17:47:12.191Z,3.83
2022-10-01T17:49:39.456Z,3.08
2022-10-01T17:52:05.920Z,2.40
2022-10-01T17:54:33.240Z,7.82
2022-10-01T17:56:59.703Z,5.43
2022-10-01T17:59:26.100Z,8.38
2022-10-01T18:01:53.225Z,5.05
2022-10-01T18:04:19.708Z,4.25
2022-10-01T18:06:48.486Z,3.55
2022-10-01T18:09:15.471Z,1.88
2022-10-01T18:11:41.948Z,4.53
2022-10-01T18:14:08.526Z,3.00
2022-10-01T18:16:35.447Z,3.28
2022-10-01T18:21:50.933Z,4.68
2022-10-01T18:24:17.390Z,4.10
2022-10-01T18:26:45.607Z,1.77
2022-10-01T18:29:18.265Z,2.00
2022-10-01T18:31:45.432Z,2.10
2022-10-01T18:34:19.410Z,1.88
2022-10-01T18:36:57.623Z,1.95
2022-10-01T18:39:49.101Z,3.20
2022-10-01T18:42:31.402Z,14.60
2022-10-01T18:45:01.099Z,9.00
2022-10-01T18:47:56.098Z,9.27
2022-10-01T18:50:36.770Z,10.43
2022-10-01T18:53:18.800Z,6.45
2022-10-01T18:55:52.540Z,5.90
2022-10-01T18:58:45.346Z,4.18
2022-10-01T19:01:21.391Z,5.50
2022-10-01T19:04:08.744Z,1.83
2022-10-01T19:07:12.715Z,6.15
2022-10-01T19:10:11.550Z,8.13
2022-10-01T19:13:00.963Z,3.65
2022-10-01T19:15:51.876Z,3.80
2022-10-01T19:18:32.324Z,2.50
2022-10-01T19:21:18.985Z,4.20
2022-10-01T19:24:06.070Z,7.63
2022-10-01T19:26:47.777Z,3.22
2022-10-01T19:29:28.149Z,3.15
2022-10-01T19:32:00.232Z,10.40
2022-10-01T19:34:45.278Z,11.80
2022-10-01T19:37:33.597Z,8.85
2022-10-01T19:40:13.003Z,11.25
2022-10-01T19:42:45.013Z,5.25
2022-10-01T19:45:29.950Z,5.50
2022-10-01T19:48:23.116Z,4.85
2022-10-01T19:50:55.612Z,6.47
2022-10-01T19:53:28.421Z,2.33
2022-10-01T19:55:59.237Z,4.97
2022-10-01T19:58:25.684Z,4.70
2022-10-01T20:00:57.120Z,2.65
2022-10-01T20:04:15.922Z,6.78
2022-10-01T20:06:46.159Z,4.97
2022-10-01T20:09:46.223Z,5.63
2022-10-01T20:12:30.928Z,8.73
2022-10-01T20:15:08.775Z,9.70
2022-10-01T20:17:58.358Z,14.02
2022-10-01T20:20:45.762Z,22.95
2022-10-01T20:23:49.871Z,13.68
2022-10-01T20:26:22.274Z,11.18
2022-10-01T20:29:10.545Z,8.45
2022-10-01T20:31:48.880Z,8.55
2022-10-01T20:34:36.669Z,10.40
2022-10-01T20:37:13.720Z,12.98
2022-10-01T20:39:47.936Z,15.75
2022-10-01T20:42:19.236Z,9.88
2022-10-01T20:44:46.222Z,7.15
2022-10-01T20:47:31.232Z,4.00
2022-10-01T20:50:09.531Z,5.60
2022-10-01T20:53:04.596Z,4.38
2022-10-01T20:55:39.005Z,5.88
2022-10-01T20:58:13.023Z,5.20
2022-10-01T21:00:41.433Z,4.45
2022-10-01T21:03:31.826Z,3.95
2022-10-01T21:06:06.995Z,6.07
2022-10-01T21:08:40.745Z,4.38
2022-10-01T21:11:28.331Z,4.88
2022-10-01T21:14:06.564Z,7.82
2022-10-01T21:16:50.993Z,6.22
2022-10-01T21:19:26.787Z,8.15
2022-10-01T21:21:55.262Z,5.72
2022-10-01T21:24:37.153Z,5.35
2022-10-01T21:27:48.040Z,2.85
2022-10-01T21:30:17.481Z,3.50
2022-10-01T21:33:03.218Z,2.63
2022-10-01T21:35:54.835Z,4.57
2022-10-01T21:38:52.669Z,3.58
2022-10-01T21:41:36.499Z,5.55
2022-10-01T21:44:18.116Z,5.55
2022-10-01T21:46:54.395Z,8.07
2022-10-01T21:49:24.379Z,4.82
2022-10-01T21:51:59.160Z,4.50
2022-10-01T21:54:31.680Z,4.32
2022-10-01T21:57:13.195Z,14.90
2022-10-01T21:59:58.227Z,6.53
2022-10-01T22:02:48.079Z,9.80
2022-10-01T22:05:37.345Z,26.27
2022-10-01T22:08:47.355Z,9.05
2022-10-01T22:11:23.602Z,4.85
2022-10-01T22:14:02.682Z,8.15
2022-10-01T22:16:38.638Z,6.88
2022-10-01T22:19:12.623Z,4.40
2022-10-01T22:21:44.638Z,4.90
2022-10-01T22:24:30.970Z,15.15
2022-10-01T22:27:18.947Z,7.47
2022-10-01T22:29:51.718Z,4.85
2022-10-01T22:32:22.263Z,7.20
2022-10-01T22:34:57.867Z,6.35
2022-10-01T22:37:50.926Z,12.52
2022-10-01T22:40:44.726Z,35.35
2022-10-01T22:43:12.906Z,48.75
2022-10-01T22:46:17.865Z,46.10
2022-10-01T22:49:14.723Z,26.55
2022-10-01T22:51:49.733Z,10.07
2022-10-01T22:54:23.881Z,7.75
2022-10-01T22:57:04.836Z,8.55
2022-10-01T22:59:43.872Z,5.45
2022-10-01T23:02:22.638Z,5.45
2022-10-01T23:05:14.727Z,4.13
2022-10-01T23:08:02.237Z,5.55
2022-10-01T23:10:41.954Z,7.28
2022-10-01T23:13:34.527Z,6.05
2022-10-01T23:16:18.095Z,4.15
2022-10-01T23:18:58.643Z,5.40
2022-10-01T23:21:45.350Z,6.10
2022-10-01T23:24:27.990Z,6.68
2022-10-01T23:27:16.406Z,5.28
2022-10-01T23:30:08.254Z,6.05
2022-10-01T23:32:40.805Z,4.38
2022-10-01T23:35:36.527Z,4.80
2022-10-01T23:38:30.883Z,6.72
2022-10-01T23:41:18.706Z,7.35
2022-10-01T23:46:20.767Z,7.97
2022-10-01T23:48:56.263Z,5.50
2022-10-01T23:51:38.026Z,6.53
2022-10-01T23:54:27.195Z,6.05
2022-10-01T23:57:10.118Z,2.85
2022-10-01T23:59:59.647Z,4.65
